Champaign, Illinois
Current Conditions -  °F | °C
As of 5:53 AM on Thursday 23 Oct 2014 (Local Time) from KCMI Reporting Station
Haze Haze  
Wind Chill: 29°   Ceiling: Unl
Heat Index: 34°   Visibility: 6mi
Dew Point: 33°   Wind: 6mph
Humidity: 96%   Direction: 100°E
Pressure: 30.23"   Gusts: NA
Location:  40.11°N, 88.24°W
Report Text: KCMI 231053Z 10005KT 6SM BR CLR 01/01 A3023 RMK AO2 SLP239 T00110006 $
Loading
Personal Weather Stations






























Interactive Weather Map New forecast layout! Learn more

10-Day Weather Forecast

Advertisements
Track Severe Weather on mobile